Time;durP1;ratioP1;P1;durP2;ratioP2;P2;SDS_P1;SDS_P2;PMS_P1;PMS_P2;Temp;Humidity;BMP_temperature;BMP_pressure;BME280_temperature;BME280_humidity;BME280_pressure;Samples;Min_cycle;Max_cycle;Signal;HPM_P1;HPM_P2
2023/03/07 00:00:43;;;;;;;33.13;11.27;;;;;;;4.14;100.00;99662.31;4971235;28;20027;-78
2023/03/07 00:03:14;;;;;;;30.48;9.55;;;;;;;4.07;100.00;99661.72;4992512;28;20038;-78
2023/03/07 00:05:41;;;;;;;29.33;10.43;;;;;;;4.06;100.00;99659.16;4986070;28;20392;-79
2023/03/07 00:08:07;;;;;;;26.55;10.02;;;;;;;4.11;100.00;99666.88;4966701;28;20030;-79
2023/03/07 00:10:33;;;;;;;17.80;9.25;;;;;;;4.13;100.00;99665.88;4976246;28;20319;-79
2023/03/07 00:13:00;;;;;;;28.67;10.07;;;;;;;4.13;100.00;99662.38;4958332;28;20039;-79
2023/03/07 00:15:26;;;;;;;30.02;10.20;;;;;;;4.11;100.00;99665.09;4973455;28;20680;-79
2023/03/07 00:17:52;;;;;;;38.78;10.95;;;;;;;4.11;100.00;99662.44;4984266;28;20491;-79
2023/03/07 00:20:18;;;;;;;30.77;11.27;;;;;;;4.04;100.00;99655.75;4980258;28;20066;-80
2023/03/07 00:22:47;;;;;;;32.88;11.00;;;;;;;4.10;100.00;99657.22;4980054;28;20062;-78
2023/03/07 00:25:33;;;;;;;29.73;10.68;;;;;;;4.05;100.00;99658.31;4981345;28;20046;-79
2023/03/07 00:28:00;;;;;;;30.40;11.95;;;;;;;4.01;100.00;99658.53;4975773;28;20035;-80
2023/03/07 00:30:26;;;;;;;26.02;11.80;;;;;;;3.99;100.00;99652.44;4976551;28;20035;-80
2023/03/07 00:32:53;;;;;;;31.38;12.20;;;;;;;3.98;100.00;99648.13;4960787;28;20042;-79
2023/03/07 00:35:19;;;;;;;32.83;13.25;;;;;;;4.08;100.00;99654.66;4973916;28;20504;-79
2023/03/07 00:37:45;;;;;;;35.33;13.77;;;;;;;4.04;100.00;99653.09;4974087;28;20043;-80
2023/03/07 00:40:12;;;;;;;29.13;12.27;;;;;;;4.11;100.00;99651.88;4975007;28;20556;-80
2023/03/07 00:42:38;;;;;;;26.20;12.30;;;;;;;4.05;100.00;99649.53;4982313;28;20133;-80
2023/03/07 00:45:05;;;;;;;29.27;12.95;;;;;;;4.13;100.00;99646.53;4978507;28;20508;-80
2023/03/07 00:47:34;;;;;;;34.65;12.93;;;;;;;4.22;100.00;99654.88;4979040;28;20061;-80
2023/03/07 00:50:00;;;;;;;30.80;13.32;;;;;;;4.14;100.00;99667.59;4991192;28;20049;-79
2023/03/07 00:52:26;;;;;;;24.67;12.27;;;;;;;4.17;100.00;99671.88;4980266;28;20032;-79
2023/03/07 00:54:53;;;;;;;27.50;13.52;;;;;;;4.17;100.00;99669.22;4979696;28;20342;-79
2023/03/07 00:57:19;;;;;;;24.00;10.07;;;;;;;4.14;100.00;99664.06;4977498;28;20050;-79
2023/03/07 00:59:45;;;;;;;18.30;7.55;;;;;;;4.09;100.00;99653.75;4975075;28;20041;-79
2023/03/07 01:02:12;;;;;;;19.95;7.10;;;;;;;4.02;100.00;99657.59;4977590;28;20040;-79
2023/03/07 01:04:38;;;;;;;25.50;7.65;;;;;;;4.02;100.00;99657.59;4978117;28;20038;-78
2023/03/07 01:07:04;;;;;;;15.80;6.47;;;;;;;3.98;100.00;99648.97;4974635;28;20045;-79
2023/03/07 01:09:34;;;;;;;15.15;5.97;;;;;;;3.80;100.00;99632.22;4979462;28;20031;-80
2023/03/07 01:12:00;;;;;;;13.63;4.88;;;;;;;3.90;100.00;99656.41;4973550;28;20463;-79
2023/03/07 01:14:26;;;;;;;17.52;5.32;;;;;;;3.90;100.00;99645.84;4965561;28;20504;-80
2023/03/07 01:16:52;;;;;;;26.70;5.20;;;;;;;3.82;100.00;99645.31;4975344;28;20043;-79
2023/03/07 01:19:19;;;;;;;21.15;4.20;;;;;;;3.76;100.00;99640.34;4977309;28;20041;-79
2023/03/07 01:21:46;;;;;;;9.90;4.18;;;;;;;3.77;100.00;99637.63;4977336;28;20041;-79
2023/03/07 01:24:15;;;;;;;18.20;4.88;;;;;;;3.69;100.00;99634.50;4975373;28;20027;-79
2023/03/07 01:26:42;;;;;;;14.02;4.97;;;;;;;3.61;100.00;99629.56;4964686;28;20562;-80
2023/03/07 01:29:10;;;;;;;18.92;4.57;;;;;;;3.59;100.00;99633.22;4970725;28;20448;-79
2023/03/07 01:31:36;;;;;;;20.23;5.38;;;;;;;3.51;100.00;99622.16;4984288;28;20026;-79
2023/03/07 01:34:03;;;;;;;17.60;5.68;;;;;;;3.47;100.00;99624.94;4980729;28;20047;-79
2023/03/07 01:36:34;;;;;;;14.82;4.43;;;;;;;3.47;100.00;99634.63;4968491;28;20027;-79
2023/03/07 01:39:09;;;;;;;16.73;4.57;;;;;;;3.42;100.00;99631.34;4969603;28;20029;-80
2023/03/07 01:41:38;;;;;;;12.63;5.78;;;;;;;3.39;100.00;99631.47;4969748;28;20046;-78
2023/03/07 01:44:15;;;;;;;19.20;5.88;;;;;;;3.34;100.00;99621.16;4970995;28;20511;-79
2023/03/07 01:46:53;;;;;;;28.52;6.72;;;;;;;3.30;100.00;99617.78;4970722;28;20041;-80
2023/03/07 01:49:38;;;;;;;15.93;5.10;;;;;;;3.28;100.00;99617.00;4961572;28;20039;-80
2023/03/07 01:52:10;;;;;;;17.13;6.43;;;;;;;3.30;100.00;99611.66;4967512;28;20369;-80
2023/03/07 01:54:47;;;;;;;21.45;6.32;;;;;;;3.28;100.00;99613.47;4964700;28;20041;-79
2023/03/07 01:57:19;;;;;;;16.63;5.72;;;;;;;3.25;100.00;99613.66;4957713;28;20034;-78
2023/03/07 01:59:47;;;;;;;24.13;6.23;;;;;;;3.28;100.00;99617.00;4966158;28;20033;-80
2023/03/07 02:02:17;;;;;;;25.95;6.22;;;;;;;3.21;100.00;99610.28;4958477;28;20041;-79
2023/03/07 02:05:12;;;;;;;24.80;7.00;;;;;;;3.25;100.00;99614.50;4955131;28;20065;-80
2023/03/07 02:07:44;;;;;;;21.40;6.70;;;;;;;3.29;100.00;99609.94;4972743;28;20106;-79
2023/03/07 02:10:13;;;;;;;25.95;6.50;;;;;;;3.28;100.00;99613.47;4962797;28;20058;-80
2023/03/07 02:12:40;;;;;;;37.20;6.72;;;;;;;3.29;100.00;99617.84;4972669;28;20364;-80
2023/03/07 02:15:11;;;;;;;22.60;6.05;;;;;;;3.29;100.00;99605.50;4978195;28;20409;-80
2023/03/07 02:17:41;;;;;;;;;;;;;;;3.33;100.00;99594.84;4977753;28;20045;-80
2023/03/07 02:20:40;;;;;;;20.92;6.15;;;;;;;3.35;100.00;99592.97;4974425;28;20285;-80
2023/03/07 02:23:31;;;;;;;26.17;6.40;;;;;;;3.35;100.00;99577.16;4981307;28;20038;-79
2023/03/07 02:26:00;;;;;;;24.75;6.57;;;;;;;3.37;100.00;99577.94;4993630;28;20532;-80
2023/03/07 02:28:27;;;;;;;30.60;6.47;;;;;;;3.39;100.00;99578.72;4970766;28;20477;-79
2023/03/07 02:31:02;;;;;;;18.30;5.63;;;;;;;3.42;100.00;99573.31;4960460;28;20547;-80
2023/03/07 02:33:32;;;;;;;31.02;6.85;;;;;;;3.47;100.00;99581.88;4962933;28;20023;-79
2023/03/07 02:36:09;;;;;;;21.02;5.97;;;;;;;3.65;100.00;99585.41;4977348;28;20034;-80
2023/03/07 02:38:40;;;;;;;19.33;6.10;;;;;;;3.63;100.00;99582.84;4976073;28;20039;-79
2023/03/07 02:41:10;;;;;;;18.75;5.38;;;;;;;3.53;100.00;99572.81;4968974;28;20505;-79
2023/03/07 02:43:36;;;;;;;24.13;6.35;;;;;;;3.61;100.00;99575.94;4975389;28;20043;-80
2023/03/07 02:46:04;;;;;;;18.92;6.05;;;;;;;3.65;100.00;99569.56;4953523;28;20038;-79
2023/03/07 02:48:30;;;;;;;25.23;6.60;;;;;;;3.58;100.00;99573.44;4971477;28;20114;-79
2023/03/07 02:50:57;;;;;;;18.52;5.57;;;;;;;3.52;100.00;99571.94;4964484;28;20038;-80
2023/03/07 02:53:23;;;;;;;25.15;6.05;;;;;;;3.49;100.00;99578.22;4973406;28;20429;-80
2023/03/07 02:55:50;;;;;;;22.90;5.30;;;;;;;3.48;100.00;99578.28;4961323;28;20499;-80
2023/03/07 02:58:16;;;;;;;24.90;6.47;;;;;;;3.44;100.00;99574.94;4978773;28;20412;-80
2023/03/07 03:00:42;;;;;;;25.48;4.93;;;;;;;3.45;100.00;99562.63;4977527;28;20077;-80
2023/03/07 03:03:10;;;;;;;30.63;5.30;;;;;;;3.41;100.00;99564.53;4970164;28;20136;-79
2023/03/07 03:05:36;;;;;;;24.73;5.88;;;;;;;3.40;100.00;99560.19;4964229;28;20038;-80
2023/03/07 03:08:03;;;;;;;25.77;5.45;;;;;;;3.41;100.00;99556.63;4957287;28;20037;-79
2023/03/07 03:10:29;;;;;;;24.77;5.68;;;;;;;3.42;100.00;99560.97;4977412;28;20105;-80
2023/03/07 03:12:57;;;;;;;23.17;5.93;;;;;;;3.42;100.00;99560.97;4973449;28;20042;-80
2023/03/07 03:15:24;;;;;;;27.95;7.32;;;;;;;3.42;100.00;99555.69;4966148;28;20065;-79
2023/03/07 03:17:52;;;;;;;28.42;6.88;;;;;;;3.44;100.00;99553.81;4985027;28;20046;-79
2023/03/07 03:20:19;;;;;;;21.98;6.18;;;;;;;3.41;100.00;99556.63;4980400;28;20469;-79
2023/03/07 03:22:45;;;;;;;19.27;5.97;;;;;;;3.43;100.00;99552.13;4967774;28;20038;-80
2023/03/07 03:25:13;;;;;;;19.67;5.88;;;;;;;3.47;100.00;99558.97;4968973;28;20035;-79
2023/03/07 03:27:41;;;;;;;19.17;5.38;;;;;;;3.45;100.00;99547.63;4966882;28;20194;-80
2023/03/07 03:30:10;;;;;;;12.80;5.90;;;;;;;3.47;100.00;99551.06;4971436;28;20554;-80
2023/03/07 03:32:37;;;;;;;19.67;5.15;;;;;;;3.46;100.00;99544.06;4960803;28;20042;-79
2023/03/07 03:35:05;;;;;;;21.65;6.05;;;;;;;3.46;100.00;99549.34;4974469;28;20099;-80
2023/03/07 03:37:32;;;;;;;21.98;5.15;;;;;;;3.45;100.00;99542.38;4972110;28;20114;-80
2023/03/07 03:39:59;;;;;;;30.55;6.47;;;;;;;3.44;100.00;99543.28;4974254;28;20089;-80
2023/03/07 03:42:25;;;;;;;15.02;4.80;;;;;;;3.44;100.00;99548.56;4978409;28;20038;-79
2023/03/07 03:44:51;;;;;;;17.50;5.40;;;;;;;3.45;100.00;99542.38;4976980;28;20046;-80
2023/03/07 03:47:18;;;;;;;19.83;4.45;;;;;;;3.49;100.00;99536.00;4979157;28;20038;-81
2023/03/07 03:49:44;;;;;;;20.25;5.15;;;;;;;3.47;100.00;99535.22;4969946;28;20146;-80
2023/03/07 03:52:10;;;;;;;21.77;5.00;;;;;;;3.48;100.00;99536.91;4976332;28;20039;-79
2023/03/07 03:54:37;;;;;;;16.98;5.03;;;;;;;3.47;100.00;99540.50;4976516;28;20408;-79
2023/03/07 03:57:03;;;;;;;19.55;4.82;;;;;;;3.54;100.00;99540.19;4974330;28;20034;-81
2023/03/07 03:59:30;;;;;;;15.50;5.53;;;;;;;3.56;100.00;99540.97;4981784;28;20051;-79
2023/03/07 04:01:57;;;;;;;18.00;6.15;;;;;;;3.57;100.00;99537.44;4978043;28;20111;-78
2023/03/07 04:04:23;;;;;;;17.90;5.63;;;;;;;3.57;100.00;99537.44;4957263;28;20037;-79
2023/03/07 04:06:50;;;;;;;15.15;5.47;;;;;;;3.61;100.00;99539.00;4961845;28;20034;-79
2023/03/07 04:09:16;;;;;;;16.85;5.65;;;;;;;3.60;100.00;99538.16;4969282;28;20076;-79
2023/03/07 04:11:46;;;;;;;21.08;4.88;;;;;;;3.61;100.00;99541.63;4960124;28;20381;-79
2023/03/07 04:14:12;;;;;;;21.52;7.10;;;;;;;3.59;100.00;99535.56;4978411;28;20031;-80
2023/03/07 04:16:40;;;;;;;29.33;7.72;;;;;;;3.59;100.00;99533.78;4968989;28;20039;-79
2023/03/07 04:19:09;;;;;;;18.77;5.55;;;;;;;3.56;100.00;99531.31;4966204;28;20034;-79
2023/03/07 04:21:35;;;;;;;24.98;7.13;;;;;;;3.56;100.00;99527.78;4976091;28;20133;-80
2023/03/07 04:24:01;;;;;;;17.15;4.60;;;;;;;3.35;100.00;99485.66;4979144;28;20416;-79
2023/03/07 04:26:30;;;;;;;17.23;3.90;;;;;;;3.55;100.00;99521.66;4980302;28;20125;-79
2023/03/07 04:28:56;;;;;;;21.92;4.72;;;;;;;3.50;100.00;99518.38;4954692;28;20039;-80
2023/03/07 04:31:28;;;;;;;14.82;3.78;;;;;;;3.49;100.00;99517.53;4961968;28;20062;-80
2023/03/07 04:33:57;;;;;;;15.73;2.85;;;;;;;3.47;100.00;99514.13;4973863;28;20118;-80
2023/03/07 04:36:24;;;;;;;13.27;3.50;;;;;;;3.44;100.00;99508.13;4971079;28;20034;-80
2023/03/07 04:38:52;;;;;;;17.08;2.53;;;;;;;3.39;100.00;99516.28;4973660;28;20150;-80
2023/03/07 04:41:22;;;;;;;9.20;2.03;;;;;;;3.35;100.00;99519.97;4976417;28;20053;-80
2023/03/07 04:43:51;;;;;;;14.52;2.25;;;;;;;3.30;100.00;99514.06;4964080;28;20040;-80
2023/03/07 04:46:19;;;;;;;10.98;2.15;;;;;;;3.27;100.00;99514.19;4976460;28;20042;-80
2023/03/07 04:48:46;;;;;;;11.75;1.98;;;;;;;3.28;100.00;99515.91;4969919;28;20058;-79
2023/03/07 04:51:12;;;;;;;8.57;1.50;;;;;;;3.24;100.00;99511.69;4973479;28;20109;-82
2023/03/07 04:53:39;;;;;;;9.75;1.85;;;;;;;3.19;100.00;99521.63;4986128;28;20030;-80
2023/03/07 04:56:07;;;;;;;11.95;1.45;;;;;;;3.15;100.00;99513.00;4948949;28;20077;-80
2023/03/07 04:58:34;;;;;;;19.92;3.40;;;;;;;3.10;100.00;99510.56;4957468;28;20089;-80
2023/03/07 05:01:02;;;;;;;10.35;1.90;;;;;;;3.05;100.00;99509.91;4973262;28;20038;-80
2023/03/07 05:03:28;;;;;;;10.05;2.20;;;;;;;3.02;100.00;99507.44;4976376;28;20026;-80
2023/03/07 05:05:55;;;;;;;12.13;2.13;;;;;;;3.01;100.00;99510.97;4974859;28;20127;-79
2023/03/07 05:08:21;;;;;;;14.35;1.77;;;;;;;3.00;100.00;99508.41;4969654;28;20043;-79
2023/03/07 05:10:49;;;;;;;13.88;2.17;;;;;;;2.95;100.00;99511.28;4977556;28;20022;-81
2023/03/07 05:13:15;;;;;;;12.23;1.80;;;;;;;2.94;100.00;99514.81;4976649;28;20042;-81
2023/03/07 05:15:41;;;;;;;11.38;1.85;;;;;;;2.91;100.00;99509.72;4980026;28;20119;-82
2023/03/07 05:18:08;;;;;;;7.32;2.30;;;;;;;2.86;100.00;99511.69;4970186;28;20038;-80
2023/03/07 05:20:34;;;;;;;9.98;1.40;;;;;;;2.81;100.00;99514.50;4976952;28;20130;-80
2023/03/07 05:23:01;;;;;;;6.70;1.50;;;;;;;2.67;100.00;99507.22;4976967;28;20114;-79
2023/03/07 05:25:28;;;;;;;7.57;1.38;;;;;;;2.66;100.00;99508.13;4962987;28;20071;-81
2023/03/07 05:27:54;;;;;;;7.68;1.27;;;;;;;2.53;100.00;99509.59;4977567;28;20416;-78
2023/03/07 05:30:21;;;;;;;8.90;1.67;;;;;;;2.48;100.00;99512.47;4961045;28;20053;-79
2023/03/07 05:32:47;;;;;;;7.90;1.80;;;;;;;2.46;100.00;99508.16;4986210;28;20488;-79
2023/03/07 05:35:15;;;;;;;5.05;1.20;;;;;;;2.44;100.00;99515.28;4958597;28;20527;-79
2023/03/07 05:37:42;;;;;;;6.10;1.27;;;;;;;2.41;100.00;99516.28;4975717;28;20030;-79
2023/03/07 05:40:10;;;;;;;10.40;2.75;;;;;;;2.27;100.00;99518.63;4968987;28;20077;-80
2023/03/07 05:42:39;;;;;;;7.13;1.40;;;;;;;2.22;100.00;99526.75;4969568;28;20050;-80
2023/03/07 05:45:06;;;;;;;3.10;1.27;;;;;;;2.20;100.00;99532.97;4965317;28;20027;-80
2023/03/07 05:47:33;;;;;;;6.78;2.05;;;;;;;2.16;100.00;99537.50;4943627;28;20050;-81
2023/03/07 05:49:59;;;;;;;7.95;1.52;;;;;;;2.10;100.00;99543.03;4966427;28;20073;-81
2023/03/07 05:52:27;;;;;;;9.95;1.77;;;;;;;2.04;100.00;99538.03;4968872;28;20038;-81
2023/03/07 05:54:53;;;;;;;12.32;2.45;;;;;;;2.03;100.00;99544.22;4975783;28;20031;-81
2023/03/07 05:57:20;;;;;;;5.40;1.70;;;;;;;1.92;100.00;99539.38;4975059;28;20038;-80
2023/03/07 05:59:46;;;;;;;8.63;1.95;;;;;;;1.80;100.00;99540.75;4959085;28;20112;-80
2023/03/07 06:02:13;;;;;;;6.50;2.17;;;;;;;1.70;100.00;99542.91;4974062;28;20043;-80
2023/03/07 06:04:40;;;;;;;7.68;2.08;;;;;;;1.65;100.00;99541.34;4979350;28;20034;-79
2023/03/07 06:07:06;;;;;;;6.25;1.88;;;;;;;1.48;100.00;99545.50;4977302;28;20042;-80
2023/03/07 06:09:32;;;;;;;7.07;2.30;;;;;;;1.51;100.00;99545.41;4983905;28;20042;-80
2023/03/07 06:12:00;;;;;;;9.77;2.60;;;;;;;1.33;100.00;99541.69;4960491;28;20038;-80
2023/03/07 06:14:26;;;;;;;6.30;2.67;;;;;;;1.24;100.00;99542.03;4973941;28;20038;-80
2023/03/07 06:16:52;;;;;;;9.70;2.30;;;;;;;1.16;100.00;99537.06;4971371;28;20425;-81
2023/03/07 06:19:19;;;;;;;15.43;2.70;;;;;;;1.11;100.00;99538.16;4967492;28;20070;-81
2023/03/07 06:21:48;;;;;;;14.13;2.38;;;;;;;1.20;100.00;99536.97;4966867;28;20041;-80
2023/03/07 06:24:14;;;;;;;11.70;2.60;;;;;;;1.19;100.00;99538.72;4973434;28;20063;-80
2023/03/07 06:26:40;;;;;;;13.60;1.92;;;;;;;1.12;100.00;99538.13;4965185;28;20499;-80
2023/03/07 06:29:06;;;;;;;8.18;1.88;;;;;;;1.13;100.00;99539.81;4965122;28;20487;-79
2023/03/07 06:31:33;;;;;;;7.43;2.05;;;;;;;1.14;100.00;99541.53;4972777;28;20030;-80
2023/03/07 06:33:59;;;;;;;12.40;2.47;;;;;;;1.19;100.00;99543.97;4979902;28;20034;-79
2023/03/07 06:36:26;;;;;;;13.38;2.90;;;;;;;1.20;100.00;99548.34;4977299;28;20033;-80
2023/03/07 06:38:56;;;;;;;12.65;3.30;;;;;;;1.20;100.00;99550.97;4978010;28;20413;-80
2023/03/07 06:41:23;;;;;;;10.77;2.25;;;;;;;1.26;100.00;99563.03;4950504;28;20071;-79
2023/03/07 06:43:52;;;;;;;12.57;2.80;;;;;;;1.29;100.00;99555.88;4976832;28;20048;-79
2023/03/07 06:46:21;;;;;;;11.30;3.42;;;;;;;1.26;100.00;99555.13;4957377;28;20045;-79
2023/03/07 06:48:49;;;;;;;6.97;3.00;;;;;;;1.29;100.00;99560.28;4963898;28;20092;-79
2023/03/07 06:51:17;;;;;;;10.77;2.63;;;;;;;1.26;100.00;99560.41;4963246;28;20038;-80
2023/03/07 06:53:46;;;;;;;12.90;3.67;;;;;;;1.23;100.00;99555.25;4976104;28;20065;-80
2023/03/07 06:56:12;;;;;;;12.85;3.28;;;;;;;1.18;100.00;99552.81;4968764;28;20033;-79
2023/03/07 06:58:39;;;;;;;12.15;3.30;;;;;;;1.14;100.00;99552.06;4962248;28;20408;-79
2023/03/07 07:01:13;;;;;;;10.88;3.47;;;;;;;1.18;100.00;99551.94;4975456;28;20373;-78
2023/03/07 07:03:40;;;;;;;19.08;4.22;;;;;;;1.15;100.00;99559.00;4964435;28;20481;-79
2023/03/07 07:06:06;;;;;;;13.95;3.88;;;;;;;1.18;100.00;99551.94;4957239;28;20488;-79
2023/03/07 07:08:32;;;;;;;15.32;4.07;;;;;;;1.19;100.00;99556.28;4973853;28;20033;-78
2023/03/07 07:10:58;;;;;;;14.65;3.60;;;;;;;1.08;100.00;99552.28;4959521;28;20045;-77
2023/03/07 07:13:25;;;;;;;9.70;3.28;;;;;;;1.11;100.00;99554.78;4968748;28;20612;-79
2023/03/07 07:15:52;;;;;;;14.85;5.25;;;;;;;1.10;100.00;99550.47;4972229;28;20084;-79
2023/03/07 07:18:18;;;;;;;12.43;4.10;;;;;;;1.12;100.00;99551.25;4983254;28;20054;-79
2023/03/07 07:20:45;;;;;;;11.60;3.30;;;;;;;1.09;100.00;99548.72;4972898;28;20073;-78
2023/03/07 07:23:11;;;;;;;14.55;3.78;;;;;;;1.11;100.00;99546.91;4958481;28;20031;-78
2023/03/07 07:25:38;;;;;;;15.45;4.30;;;;;;;1.11;100.00;99543.44;4988720;28;20049;-78
2023/03/07 07:28:04;;;;;;;9.95;4.00;;;;;;;1.15;100.00;99543.25;4989229;28;20070;-78
2023/03/07 07:30:33;;;;;;;11.05;3.83;;;;;;;1.21;100.00;99546.56;4980510;28;20046;-78
2023/03/07 07:33:00;;;;;;;10.73;4.05;;;;;;;1.24;100.00;99541.19;4978633;28;20128;-79
2023/03/07 07:35:26;;;;;;;11.85;4.53;;;;;;;1.27;100.00;99538.47;4963106;28;20113;-78
2023/03/07 07:37:53;;;;;;;13.32;4.55;;;;;;;1.26;100.00;99547.25;4984649;28;20218;-77
2023/03/07 07:40:20;;;;;;;12.05;4.80;;;;;;;1.27;100.00;99546.34;4981415;28;20049;-77
2023/03/07 07:42:54;;;;;;;14.20;5.55;;;;;;;1.32;100.00;99549.63;4967927;28;20773;-78
2023/03/07 07:45:40;;;;;;;15.20;4.90;;;;;;;1.33;100.00;99551.38;4972234;28;20089;-78
2023/03/07 07:48:09;;;;;;;11.10;4.00;;;;;;;1.49;100.00;99551.63;4967372;28;20050;-80
2023/03/07 07:50:35;;;;;;;10.93;4.70;;;;;;;1.19;100.00;99520.31;4976152;28;20038;-79
2023/03/07 07:53:01;;;;;;;13.02;5.18;;;;;;;1.38;100.00;99559.06;4961294;28;20063;-79
2023/03/07 07:55:28;;;;;;;16.52;4.88;;;;;;;1.35;100.00;99563.53;4960283;28;20038;-79
2023/03/07 07:57:55;;;;;;;12.55;4.82;;;;;;;1.38;100.00;99567.81;4972703;28;20036;-79
2023/03/07 08:00:21;;;;;;;17.58;4.55;;;;;;;1.42;100.00;99569.41;4971485;28;20246;-78
2023/03/07 08:02:49;;;;;;;20.67;4.55;;;;;;;1.47;100.00;99561.34;4978437;28;20042;-78
2023/03/07 08:05:19;;;;;;;14.23;4.72;;;;;;;1.59;100.00;99565.28;4965372;28;20089;-78
2023/03/07 08:07:45;;;;;;;22.98;5.50;;;;;;;1.69;100.00;99570.09;4967473;28;20476;-79
2023/03/07 08:10:14;;;;;;;21.90;5.25;;;;;;;1.68;100.00;99575.44;4979331;28;20050;-79
2023/03/07 08:12:50;;;;;;;9.77;4.88;;;;;;;1.78;100.00;99568.91;4976375;28;20110;-77
2023/03/07 08:15:20;;;;;;;7.93;4.03;;;;;;;1.77;100.00;99572.47;4974031;28;20042;-78
2023/03/07 08:17:47;;;;;;;17.55;6.05;;;;;;;1.78;100.00;99574.16;4978770;28;20124;-77
2023/03/07 08:20:13;;;;;;;14.70;5.40;;;;;;;1.87;100.00;99580.84;4975034;28;20031;-80
2023/03/07 08:22:39;;;;;;;10.35;3.85;;;;;;;1.89;100.00;99587.75;4975866;28;20049;-78
2023/03/07 08:25:07;;;;;;;14.15;3.90;;;;;;;1.94;100.00;99585.78;4979081;28;20039;-79
2023/03/07 08:27:33;;;;;;;11.75;3.95;;;;;;;1.94;100.00;99580.53;4982191;28;20030;-79
2023/03/07 08:30:00;;;;;;;18.85;4.65;;;;;;;1.90;100.00;99573.69;4966174;28;20065;-79
2023/03/07 08:32:27;;;;;;;15.95;5.00;;;;;;;1.98;100.00;99586.53;4974597;28;20039;-78
2023/03/07 08:34:53;;;;;;;18.83;4.53;;;;;;;2.06;100.00;99575.69;4976498;28;20125;-78
2023/03/07 08:37:20;;;;;;;13.23;5.30;;;;;;;2.18;100.00;99579.56;4985457;28;20053;-78
2023/03/07 08:39:47;;;;;;;14.23;4.63;;;;;;;2.12;100.00;99575.41;4986153;28;20037;-78
2023/03/07 08:42:13;;;;;;;13.90;4.53;;;;;;;2.23;100.00;99569.72;4979657;28;20050;-78
2023/03/07 08:44:42;;;;;;;9.90;4.18;;;;;;;2.20;100.00;99570.72;4992261;28;20129;-77
2023/03/07 08:47:10;;;;;;;18.73;6.07;;;;;;;2.28;100.00;99586.19;4983591;28;20030;-79
2023/03/07 08:49:36;;;;;;;12.57;4.38;;;;;;;2.27;100.00;99576.56;4976109;28;20041;-78
2023/03/07 08:52:03;;;;;;;16.45;4.38;;;;;;;2.28;100.00;99573.88;4977561;28;20027;-79
2023/03/07 08:54:31;;;;;;;13.52;4.22;;;;;;;2.36;100.00;99580.59;4980534;28;20046;-81
2023/03/07 08:56:59;;;;;;;13.40;4.95;;;;;;;2.38;100.00;99584.03;4958024;28;20051;-79
2023/03/07 08:59:25;;;;;;;17.10;4.28;;;;;;;2.45;100.00;99580.22;4976401;28;20038;-78
2023/03/07 09:01:51;;;;;;;14.05;4.68;;;;;;;2.58;100.00;99576.13;4984096;28;20448;-79
2023/03/07 09:04:17;;;;;;;10.65;3.85;;;;;;;2.67;100.00;99578.38;4971727;28;20093;-80
2023/03/07 09:06:44;;;;;;;13.73;3.90;;;;;;;2.86;100.00;99582.84;4971845;28;20061;-80
2023/03/07 09:09:10;;;;;;;13.45;4.22;;;;;;;2.96;100.00;99573.59;4976564;28;20038;-80
2023/03/07 09:11:36;;;;;;;11.52;4.00;;;;;;;2.99;100.00;99570.84;4978425;28;20038;-79
2023/03/07 09:14:03;;;;;;;14.23;4.05;;;;;;;2.97;100.00;99577.97;4989899;28;20054;-78
2023/03/07 09:16:29;;;;;;;15.82;4.40;;;;;;;3.03;100.00;99569.75;4971399;28;20038;-79
2023/03/07 09:18:55;;;;;;;13.00;3.70;;;;;;;2.98;100.00;99573.53;4972384;28;20400;-79
2023/03/07 09:21:22;;;;;;;17.23;4.72;;;;;;;3.02;100.00;99572.47;4974143;28;20408;-78
2023/03/07 09:23:48;;;;;;;14.65;4.75;;;;;;;3.03;100.00;99575.03;4967346;28;20046;-78
2023/03/07 09:26:16;;;;;;;15.07;4.82;;;;;;;3.09;100.00;99566.88;4972236;28;20400;-77
2023/03/07 09:28:42;;;;;;;11.85;4.35;;;;;;;3.12;100.00;99563.22;4970951;28;20073;-79
2023/03/07 09:31:10;;;;;;;12.70;4.57;;;;;;;3.24;100.00;99585.53;4964184;28;20046;-78
2023/03/07 09:33:37;;;;;;;13.38;3.35;;;;;;;3.26;100.00;99575.78;4970717;28;20035;-79
2023/03/07 09:36:05;;;;;;;11.48;3.40;;;;;;;3.26;100.00;99578.41;4971847;28;20401;-79
2023/03/07 09:38:31;;;;;;;10.43;2.55;;;;;;;3.30;100.00;99580.00;4980970;28;20034;-78
2023/03/07 09:41:07;;;;;;;10.45;2.17;;;;;;;3.38;100.00;99575.22;4967705;28;20042;-79
2023/03/07 09:44:25;;;;;;;9.25;2.55;;;;;;;3.38;100.00;99574.38;4957367;28;20050;-79
2023/03/07 09:47:38;;;;;;;6.18;1.83;;;;;;;3.36;100.00;99577.09;4959098;28;20050;-79
2023/03/07 09:50:11;;;;;;;8.80;2.05;;;;;;;3.45;100.00;99584.56;4971809;28;20512;-78
2023/03/07 09:52:39;;;;;;;13.70;3.75;;;;;;;3.36;100.00;99578.88;4957589;28;20042;-78
2023/03/07 09:55:14;;;;;;;9.45;1.77;;;;;;;3.32;100.00;99580.78;4973072;28;20043;-78
2023/03/07 09:57:50;;;;;;;8.98;2.00;;;;;;;3.34;100.00;99575.47;4973941;28;20085;-80
2023/03/07 10:00:44;;;;;;;9.88;2.40;;;;;;;3.20;100.00;99579.56;4970157;28;20102;-80
2023/03/07 10:03:48;;;;;;;7.05;2.30;;;;;;;3.25;100.00;99576.72;4962939;28;20480;-78
2023/03/07 10:06:19;;;;;;;6.82;2.17;;;;;;;3.39;100.00;99582.22;4971609;28;20439;-79
2023/03/07 10:08:45;;;;;;;12.82;2.58;;;;;;;3.64;100.00;99584.56;4964937;28;20092;-79
2023/03/07 10:11:32;;;;;;;9.77;2.63;;;;;;;3.85;100.00;99587.97;4983114;28;20038;-78
2023/03/07 10:14:01;;;;;;;12.63;2.50;;;;;;;3.95;100.00;99585.75;4989759;28;20045;-79
2023/03/07 10:16:52;;;;;;;14.40;2.30;;;;;;;4.23;100.00;99581.75;4989839;28;20048;-79
2023/03/07 10:19:44;;;;;;;9.48;2.00;;;;;;;4.09;100.00;99590.34;4989606;28;20077;-80
2023/03/07 10:22:22;;;;;;;6.90;1.80;;;;;;;3.97;100.00;99591.81;4971541;28;20053;-78
2023/03/07 10:25:09;;;;;;;11.20;1.80;;;;;;;3.86;100.00;99600.25;4971387;28;20100;-79
2023/03/07 10:27:35;;;;;;;8.63;1.60;;;;;;;3.84;100.00;99583.63;4969851;28;20424;-78
2023/03/07 10:30:15;;;;;;;10.70;1.92;;;;;;;3.80;100.00;99590.00;4969636;28;20559;-78
2023/03/07 10:32:47;;;;;;;6.20;1.55;;;;;;;3.71;100.00;99593.06;4979790;28;20046;-78
2023/03/07 10:35:18;;;;;;;5.70;1.75;;;;;;;3.83;100.00;99595.09;4977370;28;20034;-78
2023/03/07 10:37:56;;;;;;;8.73;1.80;;;;;;;3.75;100.00;99591.97;4990085;28;20399;-78
2023/03/07 10:40:38;;;;;;;8.98;1.63;;;;;;;3.67;100.00;99587.06;4989134;28;20299;-79
2023/03/07 10:43:06;;;;;;;6.53;1.35;;;;;;;3.35;100.00;99570.09;4984788;28;20089;-79
2023/03/07 10:45:33;;;;;;;12.00;2.55;;;;;;;3.44;100.00;99592.56;4969184;28;20039;-79
2023/03/07 10:48:16;;;;;;;11.05;1.75;;;;;;;3.36;100.00;99590.28;4971465;28;20121;-78
2023/03/07 10:51:24;;;;;;;11.07;2.00;;;;;;;3.25;100.00;99603.94;4953881;28;20030;-78
2023/03/07 10:53:50;;;;;;;8.95;2.35;;;;;;;3.18;100.00;99604.28;4969564;28;20042;-78
2023/03/07 10:56:18;;;;;;;13.63;1.70;;;;;;;3.05;100.00;99596.91;4969758;28;20492;-79
2023/03/07 10:59:08;;;;;;;7.85;1.27;;;;;;;3.17;100.00;99603.44;4983640;28;20482;-79
2023/03/07 11:01:35;;;;;;;6.80;1.38;;;;;;;3.22;100.00;99600.59;4987939;28;20046;-78
2023/03/07 11:04:18;;;;;;;11.65;2.08;;;;;;;3.24;100.00;99604.00;4970837;28;20035;-79
2023/03/07 11:06:57;;;;;;;9.43;2.65;;;;;;;3.27;100.00;99602.09;4969781;28;20042;-79
2023/03/07 11:09:25;;;;;;;8.90;2.30;;;;;;;3.38;100.00;99606.03;4953816;28;20038;-80
2023/03/07 11:11:56;;;;;;;8.25;1.80;;;;;;;3.45;100.00;99605.69;4976518;28;20133;-78
2023/03/07 11:14:23;;;;;;;;;;;;;;;3.46;100.00;99611.81;4974078;28;20064;-78
2023/03/07 11:16:54;;;;;;;11.45;2.97;;;;;;;3.32;100.00;99620.34;4983905;28;20020;-78
2023/03/07 11:19:33;;;;;;;9.18;1.95;;;;;;;3.25;100.00;99616.28;4983769;28;20076;-79
2023/03/07 11:22:02;;;;;;;6.72;1.65;;;;;;;3.28;100.00;99613.47;4971179;28;20031;-77
2023/03/07 11:24:38;;;;;;;6.50;2.20;;;;;;;3.53;100.00;99612.41;4956395;28;20030;-77
2023/03/07 11:27:05;;;;;;;13.85;2.72;;;;;;;3.63;100.00;99605.75;4973470;28;20031;-77
2023/03/07 11:29:34;;;;;;;8.25;2.47;;;;;;;3.71;100.00;99614.19;4966576;28;20038;-77
2023/03/07 11:32:03;;;;;;;12.57;2.60;;;;;;;3.88;100.00;99613.38;4978209;28;20034;-77
2023/03/07 11:34:36;;;;;;;9.52;1.95;;;;;;;4.21;100.00;99616.19;4971463;28;20058;-78
2023/03/07 11:37:24;;;;;;;8.60;2.20;;;;;;;4.34;100.00;99607.63;4985604;28;20113;-77